createdAt,value
2022-12-15T07:00:54.482Z,5.32
2022-12-15T07:03:22.042Z,5.32
2022-12-15T07:05:49.247Z,5.55
2022-12-15T07:08:17.068Z,5.20
2022-12-15T07:10:44.629Z,5.60
2022-12-15T07:13:14.789Z,5.32
2022-12-15T07:15:42.700Z,5.60
2022-12-15T07:18:10.508Z,5.72
2022-12-15T07:20:37.590Z,5.47
2022-12-15T07:23:07.987Z,5.40
2022-12-15T07:25:36.797Z,5.60
2022-12-15T07:28:04.070Z,5.65
2022-12-15T07:30:36.795Z,5.60
2022-12-15T07:33:06.106Z,5.60
2022-12-15T07:35:33.536Z,5.70
2022-12-15T07:38:00.627Z,5.70
2022-12-15T07:40:27.823Z,5.75
2022-12-15T07:42:54.953Z,5.50
2022-12-15T07:45:22.098Z,5.38
2022-12-15T07:47:50.228Z,5.50
2022-12-15T07:50:18.645Z,5.87
2022-12-15T07:52:49.177Z,5.57
2022-12-15T07:55:16.801Z,5.60
2022-12-15T07:57:43.877Z,5.55
2022-12-15T08:00:11.305Z,5.65
2022-12-15T08:02:38.566Z,5.45
2022-12-15T08:05:06.060Z,5.20
2022-12-15T08:07:33.183Z,5.57
2022-12-15T08:10:00.212Z,5.47
2022-12-15T08:12:31.272Z,5.57
2022-12-15T08:14:58.369Z,5.65
2022-12-15T08:17:25.477Z,5.82
2022-12-15T08:19:57.092Z,5.32
2022-12-15T08:22:25.739Z,5.80
2022-12-15T08:24:53.036Z,5.70
2022-12-15T08:27:24.041Z,5.57
2022-12-15T08:29:52.349Z,5.93
2022-12-15T08:32:19.946Z,5.65
2022-12-15T08:34:49.398Z,5.90
2022-12-15T08:37:16.496Z,5.22
2022-12-15T08:39:43.751Z,5.80
2022-12-15T08:42:11.070Z,5.53
2022-12-15T08:44:40.557Z,5.75
2022-12-15T08:47:08.291Z,5.82
2022-12-15T08:49:35.495Z,6.10
2022-12-15T08:52:02.635Z,6.28
2022-12-15T08:54:29.914Z,5.95
2022-12-15T08:56:57.091Z,6.30
2022-12-15T08:59:25.015Z,6.47
2022-12-15T09:01:52.352Z,6.75
2022-12-15T09:04:19.717Z,7.00
2022-12-15T09:06:48.516Z,7.28
2022-12-15T09:09:20.280Z,7.25
2022-12-15T09:11:47.541Z,7.60
2022-12-15T09:14:14.931Z,6.65
2022-12-15T09:16:42.173Z,7.60
2022-12-15T09:19:10.084Z,7.07
2022-12-15T09:21:37.225Z,7.18
2022-12-15T09:24:04.530Z,6.70
2022-12-15T09:26:33.150Z,6.85
2022-12-15T09:29:01.861Z,6.55
2022-12-15T09:31:30.627Z,6.75
2022-12-15T09:33:59.714Z,7.20
2022-12-15T09:36:27.878Z,7.05
2022-12-15T09:43:32.938Z,6.90
2022-12-15T09:45:56.053Z,6.93
2022-12-15T09:48:24.961Z,7.13
2022-12-15T09:50:53.552Z,6.85
2022-12-15T09:53:53.655Z,7.30
2022-12-15T09:56:16.235Z,6.97
2022-12-15T09:58:59.303Z,6.65
2022-12-15T10:01:29.424Z,7.47
2022-12-15T10:04:08.286Z,7.38
2022-12-15T10:06:41.786Z,7.00
2022-12-15T10:09:21.211Z,7.40
2022-12-15T10:11:50.530Z,6.95
2022-12-15T10:14:38.268Z,6.55
2022-12-15T10:17:19.413Z,6.53
2022-12-15T10:19:46.690Z,7.17
2022-12-15T10:22:20.552Z,7.32
2022-12-15T10:27:44.847Z,6.80
2022-12-15T10:30:12.887Z,6.88
2022-12-15T10:32:50.422Z,7.10
2022-12-15T10:35:21.404Z,7.03
2022-12-15T10:37:48.441Z,6.80
2022-12-15T10:40:21.664Z,7.10
2022-12-15T10:45:39.666Z,6.90
2022-12-15T10:48:07.160Z,7.00
2022-12-15T10:50:35.502Z,6.90
2022-12-15T10:53:07.755Z,6.88
2022-12-15T10:55:39.382Z,7.13
2022-12-15T10:58:20.885Z,7.07
2022-12-15T11:00:50.729Z,7.15
2022-12-15T11:03:24.262Z,7.40
2022-12-15T11:05:53.171Z,6.90
2022-12-15T11:08:20.476Z,7.70
2022-12-15T11:11:11.914Z,6.90
2022-12-15T11:13:39.736Z,6.07
2022-12-15T11:16:20.013Z,5.25
2022-12-15T11:18:48.720Z,4.88
2022-12-15T11:21:26.851Z,3.65
2022-12-15T11:27:29.964Z,3.80
2022-12-15T11:29:56.975Z,3.63
2022-12-15T11:32:25.876Z,4.22
2022-12-15T11:34:53.575Z,4.30
2022-12-15T11:37:37.084Z,4.10
2022-12-15T11:40:19.073Z,4.13
2022-12-15T11:43:01.621Z,4.25
2022-12-15T11:45:31.733Z,4.10
2022-12-15T11:48:01.803Z,3.60
2022-12-15T11:50:44.247Z,4.03
2022-12-15T11:53:33.714Z,4.10
2022-12-15T11:56:08.905Z,5.03
2022-12-15T11:58:36.424Z,5.60
2022-12-15T12:01:30.323Z,4.72
2022-12-15T12:04:17.556Z,4.18
2022-12-15T12:06:53.511Z,4.50
2022-12-15T12:09:20.573Z,4.90
2022-12-15T12:11:48.826Z,5.00
2022-12-15T12:14:27.631Z,5.03
2022-12-15T12:16:57.929Z,4.47
2022-12-15T12:19:34.585Z,3.95
2022-12-15T12:22:05.089Z,3.80
2022-12-15T12:24:48.896Z,4.10
2022-12-15T12:27:17.867Z,3.80
2022-12-15T12:29:48.703Z,3.92
2022-12-15T12:32:34.446Z,3.60
2022-12-15T12:37:54.167Z,3.92
2022-12-15T12:40:29.291Z,3.97
2022-12-15T12:42:57.862Z,4.07
2022-12-15T12:45:33.078Z,4.30
2022-12-15T12:48:03.519Z,3.38
2022-12-15T12:50:30.953Z,3.67
2022-12-15T12:53:02.809Z,3.33
2022-12-15T12:55:35.961Z,3.05
2022-12-15T12:58:03.156Z,3.30
2022-12-15T13:00:31.313Z,2.95
2022-12-15T13:03:17.421Z,3.05
2022-12-15T13:05:45.670Z,3.08
2022-12-15T13:08:15.983Z,3.00
2022-12-15T13:10:44.317Z,2.67
2022-12-15T13:13:12.501Z,2.92
2022-12-15T13:15:44.517Z,3.03
2022-12-15T13:18:16.124Z,3.15
2022-12-15T13:20:44.169Z,3.25
2022-12-15T13:23:20.392Z,3.58
2022-12-15T13:26:03.215Z,3.10
2022-12-15T13:28:39.370Z,3.17
2022-12-15T13:31:19.039Z,3.55
2022-12-15T13:33:52.730Z,3.50
2022-12-15T13:36:38.436Z,3.33
2022-12-15T13:39:06.060Z,3.30
2022-12-15T13:41:33.218Z,4.47
2022-12-15T13:44:00.977Z,6.30
2022-12-15T13:46:29.982Z,4.82
2022-12-15T13:49:17.277Z,6.57
2022-12-15T13:51:45.864Z,5.78
2022-12-15T13:54:24.190Z,8.65
2022-12-15T13:56:51.223Z,7.68
2022-12-15T15:03:04.489Z,6.90
2022-12-15T15:03:16.257Z,3.67
